createdAt,value
2023-04-01T00:01:15.834Z,12.60
2023-04-01T00:03:44.280Z,12.60
2023-04-01T00:06:16.802Z,12.60
2023-04-01T00:08:45.458Z,12.60
2023-04-01T00:11:13.613Z,12.60
2023-04-01T00:13:41.877Z,12.60
2023-04-01T00:16:20.988Z,12.60
2023-04-01T00:18:51.064Z,12.60
2023-04-01T00:21:22.727Z,12.60
2023-04-01T00:23:51.581Z,12.60
2023-04-01T00:26:22.239Z,12.60
2023-04-01T00:28:51.019Z,12.60
2023-04-01T00:31:19.393Z,12.60
2023-04-01T00:33:47.574Z,12.60
2023-04-01T00:36:17.589Z,12.60
2023-04-01T00:38:47.814Z,12.50
2023-04-01T00:41:23.003Z,12.50
2023-04-01T00:43:52.885Z,12.50
2023-04-01T00:46:21.303Z,12.50
2023-04-01T00:48:52.414Z,12.50
2023-04-01T00:51:23.984Z,12.50
2023-04-01T00:53:56.679Z,12.50
2023-04-01T00:56:27.904Z,12.50
2023-04-01T00:59:00.483Z,12.50
2023-04-01T01:01:29.971Z,12.50
2023-04-01T01:03:58.153Z,12.50
2023-04-01T01:06:40.090Z,12.40
2023-04-01T01:09:29.908Z,12.40
2023-04-01T01:12:08.250Z,12.40
2023-04-01T01:14:53.454Z,12.40
2023-04-01T01:17:33.147Z,12.40
2023-04-01T01:20:37.350Z,12.40
2023-04-01T01:23:40.229Z,12.40
2023-04-01T01:26:51.389Z,12.40
2023-04-01T01:29:47.194Z,12.40
2023-04-01T01:32:28.190Z,12.40
2023-04-01T01:35:06.230Z,12.40
2023-04-01T01:37:35.024Z,12.40
2023-04-01T01:40:07.143Z,12.40
2023-04-01T01:42:39.154Z,12.30
2023-04-01T01:45:10.073Z,12.30
2023-04-01T01:47:39.309Z,12.40
2023-04-01T01:50:11.662Z,12.30
2023-04-01T01:52:39.809Z,12.30
2023-04-01T01:55:27.507Z,12.30
2023-04-01T01:57:58.200Z,12.30
2023-04-01T02:00:27.297Z,12.30
2023-04-01T02:02:56.062Z,12.30
2023-04-01T02:05:27.926Z,12.30
2023-04-01T02:08:02.606Z,12.30
2023-04-01T02:10:36.119Z,12.30
2023-04-01T02:13:09.964Z,12.30
2023-04-01T02:15:43.638Z,12.30
2023-04-01T02:18:12.911Z,12.30
2023-04-01T02:20:44.007Z,12.30
2023-04-01T02:23:13.007Z,12.30
2023-04-01T02:25:43.480Z,12.30
2023-04-01T02:28:13.667Z,12.30
2023-04-01T02:30:43.729Z,12.30
2023-04-01T02:33:12.183Z,12.20
2023-04-01T02:35:40.697Z,12.30
2023-04-01T02:38:10.611Z,12.30
2023-04-01T02:40:48.409Z,12.30
2023-04-01T02:43:17.207Z,12.30
2023-04-01T02:45:45.448Z,12.30
2023-04-01T02:48:13.942Z,12.30
2023-04-01T02:50:42.369Z,12.30
2023-04-01T02:53:12.335Z,12.30
2023-04-01T02:55:40.467Z,12.30
2023-04-01T02:58:08.692Z,12.30
2023-04-01T03:00:36.812Z,12.30
2023-04-01T03:03:05.147Z,12.30
2023-04-01T03:05:33.513Z,12.30
2023-04-01T03:08:01.755Z,12.20
2023-04-01T03:10:31.306Z,12.20
2023-04-01T03:12:59.460Z,12.20
2023-04-01T03:15:27.596Z,12.20
2023-04-01T03:17:55.787Z,12.20
2023-04-01T03:20:23.980Z,12.10
2023-04-01T03:22:52.216Z,12.10
2023-04-01T03:25:21.242Z,12.10
2023-04-01T03:27:51.600Z,12.10
2023-04-01T03:30:20.051Z,12.10
2023-04-01T03:32:48.282Z,12.10
2023-04-01T03:35:16.608Z,12.10
2023-04-01T03:37:44.778Z,12.10
2023-04-01T03:40:13.882Z,12.00
2023-04-01T03:42:42.052Z,12.00
2023-04-01T03:45:12.966Z,12.00
2023-04-01T03:47:41.182Z,12.00
2023-04-01T03:50:11.021Z,11.90
2023-04-01T03:52:39.194Z,11.90
2023-04-01T03:55:07.977Z,11.90
2023-04-01T03:57:36.366Z,12.00
2023-04-01T04:00:05.059Z,11.90
2023-04-01T04:02:34.616Z,11.90
2023-04-01T04:05:02.822Z,11.90
2023-04-01T04:07:30.983Z,11.90
2023-04-01T04:09:59.065Z,11.90
2023-04-01T04:12:27.137Z,11.90
2023-04-01T04:14:55.292Z,11.90
2023-04-01T04:17:23.523Z,11.90
2023-04-01T04:19:53.304Z,11.90
2023-04-01T04:22:21.422Z,11.80
2023-04-01T04:24:49.526Z,11.90
2023-04-01T04:27:17.799Z,11.80
2023-04-01T04:29:45.988Z,11.80
2023-04-01T04:32:14.388Z,11.80
2023-04-01T04:34:42.511Z,11.80
2023-04-01T04:37:12.015Z,11.70
2023-04-01T04:39:40.136Z,11.70
2023-04-01T04:42:08.506Z,11.70
2023-04-01T04:44:36.631Z,11.70
2023-04-01T04:47:04.923Z,11.70
2023-04-01T04:49:33.252Z,11.80
2023-04-01T04:52:01.370Z,11.70
2023-04-01T04:54:32.017Z,11.80
2023-04-01T04:57:00.227Z,11.80
2023-04-01T04:59:28.372Z,11.80
2023-04-01T05:01:56.564Z,11.70
2023-04-01T05:04:24.620Z,11.70
2023-04-01T05:06:52.770Z,11.70
2023-04-01T05:09:21.034Z,11.70
2023-04-01T05:11:50.633Z,11.70
2023-04-01T05:14:18.998Z,11.70
2023-04-01T05:16:47.190Z,11.70
2023-04-01T05:19:15.405Z,11.70
2023-04-01T05:21:43.534Z,11.70
2023-04-01T05:24:11.860Z,11.70
2023-04-01T05:26:40.272Z,11.70
2023-04-01T05:29:09.721Z,11.70
2023-04-01T05:31:38.086Z,11.70
2023-04-01T05:34:06.325Z,11.70
2023-04-01T05:36:34.448Z,11.70
2023-04-01T05:39:02.595Z,11.70
2023-04-01T05:41:30.888Z,11.70
2023-04-01T05:43:58.968Z,11.70
2023-04-01T05:46:28.505Z,11.70
2023-04-01T05:48:56.783Z,11.70
2023-04-01T05:51:24.975Z,11.70
2023-04-01T05:53:53.114Z,11.70
2023-04-01T05:56:21.227Z,11.70
2023-04-01T05:58:52.820Z,11.70
2023-04-01T06:01:21.564Z,11.70
2023-04-01T06:03:51.224Z,11.70
2023-04-01T06:06:26.303Z,11.70
2023-04-01T06:08:54.862Z,11.70
2023-04-01T06:11:36.854Z,11.70
2023-04-01T06:14:22.504Z,11.70
2023-04-01T06:17:04.059Z,11.70
2023-04-01T06:19:44.100Z,11.70
2023-04-01T06:22:49.910Z,11.80
2023-04-01T06:25:47.856Z,11.80
2023-04-01T06:28:59.099Z,11.80
2023-04-01T06:31:42.274Z,11.80
2023-04-01T06:34:35.577Z,11.80
2023-04-01T06:37:17.923Z,11.90
2023-04-01T06:40:14.263Z,11.90
2023-04-01T06:42:57.570Z,11.90
2023-04-01T06:45:36.700Z,11.90
2023-04-01T06:48:39.813Z,12.00
2023-04-01T06:51:19.160Z,12.00
2023-04-01T06:54:02.736Z,12.00
2023-04-01T06:56:31.570Z,12.00
2023-04-01T06:59:04.096Z,12.10
2023-04-01T07:01:37.557Z,12.10
2023-04-01T07:04:13.928Z,12.20
2023-04-01T07:06:48.556Z,12.20
2023-04-01T07:09:23.003Z,12.20
2023-04-01T07:11:52.727Z,12.30
2023-04-01T07:14:26.434Z,12.40
2023-04-01T07:17:01.435Z,12.40
2023-04-01T07:19:34.272Z,12.50
2023-04-01T07:22:06.624Z,12.50
2023-04-01T07:24:39.682Z,12.60
2023-04-01T07:27:11.567Z,12.60
2023-04-01T07:29:39.767Z,12.60
2023-04-01T07:32:36.151Z,12.60
2023-04-01T07:35:17.492Z,12.60
2023-04-01T07:37:58.226Z,12.60
2023-04-01T07:40:40.091Z,12.70
2023-04-01T07:43:29.312Z,12.60
2023-04-01T07:46:06.746Z,12.60
2023-04-01T07:48:44.463Z,12.70
2023-04-01T07:51:21.241Z,12.70
2023-04-01T07:53:58.654Z,12.70
2023-04-01T07:56:36.320Z,12.70
2023-04-01T07:59:13.928Z,12.80
2023-04-01T08:01:48.001Z,12.90
2023-04-01T08:04:36.077Z,12.90
2023-04-01T08:07:11.607Z,13.00
2023-04-01T08:09:47.437Z,13.00
2023-04-01T08:12:30.245Z,13.10
2023-04-01T08:15:07.986Z,13.10
2023-04-01T08:17:42.807Z,13.20
2023-04-01T08:20:20.948Z,13.20
2023-04-01T08:22:53.708Z,13.20
2023-04-01T08:25:26.587Z,13.20
2023-04-01T08:28:01.459Z,13.20
2023-04-01T08:30:37.538Z,13.20
2023-04-01T08:33:15.014Z,13.20
2023-04-01T08:35:49.022Z,13.20
2023-04-01T08:38:22.698Z,13.20
2023-04-01T08:41:26.357Z,13.20
2023-04-01T08:44:16.951Z,13.20
2023-04-01T08:47:11.633Z,13.20
2023-04-01T08:49:59.046Z,13.20
2023-04-01T08:52:37.708Z,13.20
2023-04-01T08:55:30.181Z,13.30
2023-04-01T08:58:13.728Z,13.30
2023-04-01T09:00:45.800Z,13.30
2023-04-01T09:03:45.188Z,13.30
2023-04-01T09:06:39.775Z,13.30
2023-04-01T09:09:34.024Z,13.40
2023-04-01T09:12:20.449Z,13.40
2023-04-01T09:15:09.211Z,13.40
2023-04-01T09:18:17.228Z,13.40
2023-04-01T09:21:07.129Z,13.50
2023-04-01T09:23:49.196Z,13.50
2023-04-01T09:26:45.523Z,13.50
2023-04-01T09:29:27.236Z,13.60
2023-04-01T09:32:17.366Z,13.60
2023-04-01T09:34:57.284Z,13.60
2023-04-01T09:37:41.070Z,13.70
2023-04-01T09:40:19.550Z,13.70
2023-04-01T09:43:14.467Z,13.80
2023-04-01T09:45:50.743Z,13.80
2023-04-01T09:48:42.564Z,13.90
2023-04-01T09:51:25.391Z,13.80
2023-04-01T09:54:09.684Z,13.90
2023-04-01T09:57:16.129Z,13.90
2023-04-01T10:00:13.348Z,13.90
2023-04-01T10:03:12.560Z,13.90
2023-04-01T10:06:27.225Z,14.00
2023-04-01T10:09:23.853Z,14.00
2023-04-01T10:12:32.195Z,14.00
2023-04-01T10:15:31.774Z,14.00
2023-04-01T10:18:25.453Z,14.00
2023-04-01T10:21:10.219Z,14.00
2023-04-01T10:24:02.954Z,13.90
2023-04-01T10:27:05.799Z,13.90
2023-04-01T10:30:03.979Z,13.90
2023-04-01T10:33:08.544Z,13.90
2023-04-01T10:36:21.697Z,13.90
2023-04-01T10:39:24.047Z,13.90
2023-04-01T10:42:27.053Z,13.90
2023-04-01T10:45:25.219Z,13.90
2023-04-01T10:48:30.045Z,13.90
2023-04-01T10:51:17.759Z,14.00
2023-04-01T10:54:01.415Z,14.00
2023-04-01T10:56:45.818Z,14.00
2023-04-01T10:59:41.791Z,14.00
2023-04-01T11:02:48.843Z,14.00
2023-04-01T11:05:55.364Z,14.10
2023-04-01T11:09:12.477Z,14.20
2023-04-01T11:12:01.587Z,14.20
2023-04-01T11:14:55.744Z,14.30
2023-04-01T11:17:43.526Z,14.20
2023-04-01T11:20:48.384Z,14.20
2023-04-01T11:23:32.669Z,14.30
2023-04-01T11:26:28.451Z,14.30
2023-04-01T11:29:26.920Z,14.30
2023-04-01T11:32:04.712Z,14.30
2023-04-01T11:34:44.821Z,14.30
2023-04-01T11:37:26.260Z,14.30
2023-04-01T11:40:05.769Z,14.30
2023-04-01T11:42:42.122Z,14.30
2023-04-01T11:45:24.960Z,14.30
2023-04-01T11:48:18.254Z,14.30
2023-04-01T11:51:02.268Z,14.30
2023-04-01T11:53:41.765Z,14.30
2023-04-01T11:56:22.658Z,14.30
2023-04-01T11:59:06.870Z,14.30
2023-04-01T12:02:01.929Z,14.30
2023-04-01T12:05:02.199Z,14.30
2023-04-01T12:07:49.122Z,14.30
2023-04-01T12:10:39.567Z,14.30
2023-04-01T12:13:18.466Z,14.20
2023-04-01T12:16:06.016Z,14.30
2023-04-01T12:18:40.864Z,14.20
2023-04-01T12:21:20.766Z,14.30
2023-04-01T12:24:15.848Z,14.30
2023-04-01T12:27:01.882Z,14.30
2023-04-01T12:29:55.839Z,14.30
2023-04-01T12:32:34.234Z,14.30
2023-04-01T12:35:26.908Z,14.30
2023-04-01T12:38:16.267Z,14.30
2023-04-01T12:41:10.125Z,14.40
2023-04-01T12:44:01.843Z,14.40
2023-04-01T12:46:53.864Z,14.40
2023-04-01T12:49:43.253Z,14.50
2023-04-01T12:52:15.443Z,14.60
2023-04-01T12:55:17.260Z,14.60
2023-04-01T12:58:21.648Z,14.60
2023-04-01T13:01:36.689Z,14.70
2023-04-01T13:04:37.400Z,14.80
2023-04-01T13:07:38.059Z,14.80
2023-04-01T13:10:22.366Z,14.80
2023-04-01T13:13:07.565Z,14.90
2023-04-01T13:15:43.886Z,14.90
2023-04-01T13:18:22.853Z,14.90
2023-04-01T13:20:59.306Z,14.90
2023-04-01T13:23:48.795Z,14.90
2023-04-01T13:26:24.784Z,14.90
2023-04-01T13:28:59.743Z,14.80
2023-04-01T13:31:50.406Z,14.80
2023-04-01T13:34:29.763Z,14.80
2023-04-01T13:37:13.808Z,14.80
2023-04-01T13:39:52.802Z,14.80
2023-04-01T13:42:35.761Z,14.80
2023-04-01T13:45:14.179Z,14.90
2023-04-01T13:48:15.151Z,15.00
2023-04-01T13:51:12.646Z,15.10
2023-04-01T13:54:06.065Z,15.20
2023-04-01T13:56:47.232Z,15.20
2023-04-01T13:59:39.916Z,15.30
2023-04-01T14:02:26.411Z,15.40
2023-04-01T14:05:10.528Z,15.40
2023-04-01T14:07:52.869Z,15.40
2023-04-01T14:10:25.575Z,15.50
2023-04-01T14:13:01.826Z,15.50
2023-04-01T14:15:43.817Z,15.60
2023-04-01T14:18:38.351Z,15.60
2023-04-01T14:21:24.291Z,15.60
2023-04-01T14:24:08.441Z,15.60
2023-04-01T14:27:04.636Z,15.60
2023-04-01T14:29:44.815Z,15.60
2023-04-01T14:32:21.917Z,15.60
2023-04-01T14:35:08.605Z,15.60
2023-04-01T14:38:20.609Z,15.60
2023-04-01T14:40:58.181Z,15.60
2023-04-01T14:44:00.938Z,15.60
2023-04-01T14:47:06.799Z,15.70
2023-04-01T14:49:38.709Z,15.70
2023-04-01T14:52:13.747Z,15.80
2023-04-01T14:54:44.941Z,15.80
2023-04-01T14:57:15.925Z,15.80
2023-04-01T14:59:52.302Z,15.80
2023-04-01T15:02:37.574Z,15.80
2023-04-01T15:05:17.236Z,15.80
2023-04-01T15:08:14.853Z,15.80
2023-04-01T15:11:08.037Z,15.80
2023-04-01T15:14:04.226Z,15.80
2023-04-01T15:16:42.253Z,15.80
2023-04-01T15:19:23.698Z,15.80
2023-04-01T15:22:19.700Z,15.80
2023-04-01T15:24:50.509Z,15.80
2023-04-01T15:27:28.828Z,15.80
2023-04-01T15:30:37.520Z,15.90
2023-04-01T15:33:22.588Z,15.90
2023-04-01T15:36:12.085Z,15.90
2023-04-01T15:38:46.600Z,16.00
2023-04-01T15:41:18.778Z,16.00
2023-04-01T15:43:49.788Z,16.00
2023-04-01T15:46:30.118Z,16.00
2023-04-01T15:49:06.977Z,16.00
2023-04-01T15:51:49.502Z,16.00
2023-04-01T15:54:42.942Z,16.10
2023-04-01T15:57:22.161Z,16.20
2023-04-01T16:00:04.207Z,16.30
2023-04-01T16:02:37.462Z,16.50
2023-04-01T16:05:11.598Z,16.70
2023-04-01T16:07:56.196Z,16.80
2023-04-01T16:11:01.158Z,16.90
2023-04-01T16:13:46.089Z,16.90
2023-04-01T16:16:25.787Z,16.80
2023-04-01T16:19:31.806Z,16.80
2023-04-01T16:22:07.044Z,16.70
2023-04-01T16:24:42.098Z,16.70
2023-04-01T16:27:17.025Z,16.50
2023-04-01T16:29:50.360Z,16.40
2023-04-01T16:32:30.007Z,16.30
2023-04-01T16:35:07.259Z,16.30
2023-04-01T16:37:39.324Z,16.20
2023-04-01T16:40:25.008Z,16.10
2023-04-01T16:42:55.888Z,15.90
2023-04-01T16:45:34.899Z,15.90
2023-04-01T16:48:13.424Z,15.80
2023-04-01T16:50:57.983Z,15.70
2023-04-01T16:53:39.563Z,15.70
2023-04-01T16:56:16.382Z,15.60
2023-04-01T16:59:00.948Z,15.50
2023-04-01T17:01:32.750Z,15.50
2023-04-01T17:04:08.589Z,15.50
2023-04-01T17:06:47.554Z,15.40
2023-04-01T17:09:29.950Z,15.40
2023-04-01T17:12:13.573Z,15.40
2023-04-01T17:14:46.360Z,15.30
2023-04-01T17:17:31.893Z,15.30
2023-04-01T17:20:17.399Z,15.30
2023-04-01T17:22:52.124Z,15.30
2023-04-01T17:25:39.272Z,15.20
2023-04-01T17:28:25.805Z,15.20
2023-04-01T17:31:01.590Z,15.20
2023-04-01T17:33:48.052Z,15.10
2023-04-01T17:36:26.430Z,15.10
2023-04-01T17:39:11.958Z,15.10
2023-04-01T17:41:49.026Z,15.00
2023-04-01T17:44:37.920Z,15.00
2023-04-01T17:47:24.074Z,15.00
2023-04-01T17:49:59.631Z,14.90
2023-04-01T17:52:34.369Z,14.90
2023-04-01T17:55:32.355Z,14.80
2023-04-01T17:58:05.903Z,14.80
2023-04-01T18:00:52.895Z,14.70
2023-04-01T18:03:30.594Z,14.70
2023-04-01T18:06:09.724Z,14.60
2023-04-01T18:08:56.891Z,14.60
2023-04-01T18:11:36.196Z,14.60
2023-04-01T18:14:29.415Z,14.50
2023-04-01T18:17:17.675Z,14.50
2023-04-01T18:19:57.460Z,14.50
2023-04-01T18:22:30.754Z,14.40
2023-04-01T18:25:01.387Z,14.40
2023-04-01T18:27:35.837Z,14.40
2023-04-01T18:30:13.907Z,14.30
2023-04-01T18:32:52.788Z,14.30
2023-04-01T18:35:29.317Z,14.20
2023-04-01T18:38:02.591Z,14.20
2023-04-01T18:40:32.821Z,14.20
2023-04-01T18:43:14.123Z,14.20
2023-04-01T18:45:48.068Z,14.10
2023-04-01T18:48:39.872Z,14.10
2023-04-01T18:51:18.618Z,14.00
2023-04-01T18:53:54.924Z,14.00
2023-04-01T18:56:31.037Z,14.00
2023-04-01T18:59:07.021Z,13.90
2023-04-01T19:01:41.557Z,14.00
2023-04-01T19:04:28.820Z,13.90
2023-04-01T19:06:59.391Z,13.90
2023-04-01T19:09:29.831Z,13.90
2023-04-01T19:12:26.601Z,13.90
2023-04-01T19:15:06.590Z,13.80
2023-04-01T19:17:46.717Z,13.80
2023-04-01T19:20:23.338Z,13.80
2023-04-01T19:23:16.178Z,13.80
2023-04-01T19:25:50.344Z,13.80
2023-04-01T19:28:30.010Z,13.80
2023-04-01T19:31:00.719Z,13.80
2023-04-01T19:33:41.213Z,13.70
2023-04-01T19:36:17.787Z,13.70
2023-04-01T19:38:57.738Z,13.70
2023-04-01T19:41:37.956Z,13.70
2023-04-01T19:44:24.291Z,13.70
2023-04-01T19:46:57.690Z,13.70
2023-04-01T19:49:51.218Z,13.70
2023-04-01T19:52:26.050Z,13.70
2023-04-01T19:55:00.613Z,13.70
2023-04-01T19:57:38.276Z,13.70
2023-04-01T20:00:18.159Z,13.70
2023-04-01T20:03:00.721Z,13.70
2023-04-01T20:05:58.086Z,13.60
2023-04-01T20:08:38.153Z,13.60
2023-04-01T20:11:16.101Z,13.60
2023-04-01T20:13:51.931Z,13.60
2023-04-01T20:16:20.844Z,13.60
2023-04-01T20:18:54.058Z,13.60
2023-04-01T20:21:37.051Z,13.60
2023-04-01T20:24:18.096Z,13.60
2023-04-01T20:26:50.695Z,13.60
2023-04-01T20:29:38.767Z,13.60
2023-04-01T20:32:17.861Z,13.60
2023-04-01T20:35:22.397Z,13.60
2023-04-01T20:37:55.808Z,13.50
2023-04-01T20:40:34.119Z,13.60
2023-04-01T20:43:34.808Z,13.50
2023-04-01T20:46:09.681Z,13.50
2023-04-01T20:49:12.822Z,13.60
2023-04-01T20:51:43.834Z,13.50
2023-04-01T20:54:45.782Z,13.50
2023-04-01T20:57:20.018Z,13.50
2023-04-01T21:00:04.537Z,13.50
2023-04-01T21:02:50.367Z,13.50
2023-04-01T21:05:58.443Z,13.50
2023-04-01T21:08:38.854Z,13.50
2023-04-01T21:11:12.554Z,13.50
2023-04-01T21:13:54.352Z,13.40
2023-04-01T21:16:35.600Z,13.40
2023-04-01T21:19:14.618Z,13.40
2023-04-01T21:22:00.825Z,13.40
2023-04-01T21:25:12.625Z,13.40
2023-04-01T21:27:50.046Z,13.40
2023-04-01T21:30:36.217Z,13.40
2023-04-01T21:33:14.945Z,13.40
2023-04-01T21:35:51.305Z,13.40
2023-04-01T21:38:32.166Z,13.30
2023-04-01T21:41:32.367Z,13.30
2023-04-01T21:44:43.707Z,13.30
2023-04-01T21:47:50.833Z,13.30
2023-04-01T21:50:44.138Z,13.30
2023-04-01T21:53:45.323Z,13.20
2023-04-01T21:56:43.756Z,13.20
2023-04-01T22:00:06.827Z,13.20
2023-04-01T22:03:24.307Z,13.20
2023-04-01T22:06:16.428Z,13.20
2023-04-01T22:08:55.319Z,13.10
2023-04-01T22:11:34.384Z,13.20
2023-04-01T22:14:07.583Z,13.10
2023-04-01T22:16:42.567Z,13.10
2023-04-01T22:19:21.012Z,13.10
2023-04-01T22:22:02.462Z,13.10
2023-04-01T22:24:44.313Z,13.10
2023-04-01T22:27:23.573Z,13.10
2023-04-01T22:30:04.044Z,13.10
2023-04-01T22:32:39.685Z,13.10
2023-04-01T22:35:16.304Z,13.10
2023-04-01T22:37:54.277Z,13.10
2023-04-01T22:40:31.437Z,13.10
2023-04-01T22:43:03.925Z,13.10
2023-04-01T22:45:58.604Z,13.10
2023-04-01T22:48:34.099Z,13.10
2023-04-01T22:51:09.614Z,13.10
2023-04-01T22:53:58.541Z,12.90
2023-04-01T22:56:35.555Z,13.00
2023-04-01T22:59:09.772Z,13.00
2023-04-01T23:01:46.823Z,13.00
2023-04-01T23:04:19.219Z,13.00
2023-04-01T23:06:55.841Z,13.00
2023-04-01T23:09:27.862Z,13.00
2023-04-01T23:11:59.618Z,13.00
2023-04-01T23:14:45.361Z,12.90
2023-04-01T23:17:33.410Z,13.00
2023-04-01T23:20:11.849Z,13.00
2023-04-01T23:22:46.437Z,12.90
2023-04-01T23:25:31.285Z,13.00
2023-04-01T23:28:07.320Z,13.00
2023-04-01T23:30:56.606Z,13.00
2023-04-01T23:33:29.917Z,13.00
2023-04-01T23:36:06.121Z,13.00
2023-04-01T23:38:37.279Z,13.00
2023-04-01T23:41:08.608Z,13.00
2023-04-01T23:43:40.989Z,13.00
2023-04-01T23:46:10.089Z,12.90
2023-04-01T23:48:41.071Z,12.90
2023-04-01T23:51:17.230Z,12.90
2023-04-01T23:53:48.463Z,12.80
2023-04-01T23:56:21.972Z,12.80
2023-04-01T23:58:53.447Z,12.80
